createdAt,value
2023-03-19T00:14:45.165Z,4.37
2023-03-19T00:29:36.161Z,4.52
2023-03-19T00:44:26.958Z,4.36
2023-03-19T00:59:18.444Z,3.82
2023-03-19T01:14:09.853Z,3.69
2023-03-19T01:29:01.220Z,4.67
2023-03-19T01:43:51.260Z,3.39
2023-03-19T01:58:41.764Z,3.31
2023-03-19T02:13:33.790Z,3.22
2023-03-19T02:28:23.990Z,3.52
2023-03-19T02:43:14.433Z,3.21
2023-03-19T02:58:06.596Z,3.63
2023-03-19T03:12:58.924Z,3.24
2023-03-19T03:27:50.146Z,3.24
2023-03-19T03:42:41.142Z,3.24
2023-03-19T03:57:31.825Z,3.29
2023-03-19T04:12:24.877Z,2.94
2023-03-19T04:27:13.267Z,3.12
2023-03-19T04:42:04.486Z,3.38
2023-03-19T04:56:54.942Z,3.23
2023-03-19T05:11:46.359Z,3.07
2023-03-19T05:26:37.479Z,2.76
2023-03-19T05:41:28.276Z,3.32
2023-03-19T05:56:19.138Z,3.12
2023-03-19T06:11:11.316Z,3.14
2023-03-19T06:26:04.127Z,3.02
2023-03-19T06:40:55.455Z,3.07
2023-03-19T07:10:38.873Z,3.03
2023-03-19T07:25:29.531Z,3.63
2023-03-19T07:40:23.259Z,3.50
2023-03-19T07:55:16.744Z,3.74
2023-03-19T08:10:08.917Z,3.78
2023-03-19T08:25:02.096Z,3.09
2023-03-19T08:39:55.301Z,2.26
2023-03-19T08:55:01.343Z,2.50
2023-03-19T09:09:53.557Z,2.00
2023-03-19T09:24:44.289Z,2.38
2023-03-19T09:39:35.192Z,2.38
2023-03-19T09:54:29.350Z,2.32
2023-03-19T10:09:32.043Z,2.19
2023-03-19T10:24:36.547Z,2.10
2023-03-19T10:39:33.617Z,1.74
2023-03-19T10:54:25.923Z,1.99
2023-03-19T11:09:35.426Z,1.78
2023-03-19T11:24:33.169Z,2.44
2023-03-19T11:55:02.816Z,2.36
2023-03-19T12:10:21.234Z,1.99
2023-03-19T12:25:25.808Z,2.54
2023-03-19T12:40:20.157Z,2.17
2023-03-19T12:55:42.947Z,2.28
2023-03-19T13:25:47.732Z,2.44
2023-03-19T13:40:39.445Z,2.82
2023-03-19T13:55:30.688Z,2.71
2023-03-19T14:10:30.351Z,2.53
2023-03-19T14:25:25.218Z,2.87
2023-03-19T14:40:23.745Z,2.50
2023-03-19T14:55:19.233Z,2.89
2023-03-19T15:10:13.797Z,2.20
2023-03-19T15:25:12.556Z,2.61
2023-03-19T15:40:06.738Z,2.30
2023-03-19T15:54:57.728Z,2.11
2023-03-19T16:09:47.208Z,1.57
2023-03-19T16:24:36.559Z,2.69
2023-03-19T16:39:35.322Z,1.38
2023-03-19T16:54:29.159Z,1.52
2023-03-19T17:09:19.118Z,1.30
2023-03-19T17:24:15.402Z,1.34
2023-03-19T17:39:10.428Z,2.07
2023-03-19T17:54:00.617Z,2.17
2023-03-19T18:08:51.852Z,2.62
2023-03-19T18:23:43.078Z,2.53
2023-03-19T18:53:38.494Z,4.20
2023-03-19T19:08:28.884Z,3.27
2023-03-19T19:23:19.428Z,3.54
2023-03-19T19:38:09.755Z,4.00
2023-03-19T19:53:00.957Z,4.96
2023-03-19T20:07:51.065Z,4.83
2023-03-19T20:22:42.274Z,3.29
2023-03-19T20:37:33.774Z,3.10
2023-03-19T20:52:25.183Z,3.76
2023-03-19T21:07:22.625Z,3.81
2023-03-19T21:37:23.802Z,2.26
2023-03-19T21:52:21.643Z,1.48
2023-03-19T22:07:16.501Z,1.04
2023-03-19T22:22:07.869Z,1.10
2023-03-19T22:36:58.913Z,1.00
2023-03-19T23:06:54.548Z,1.50
2023-03-19T23:21:45.235Z,1.57
2023-03-19T23:36:37.966Z,2.10
2023-03-19T23:51:28.348Z,2.43
